Latest Weather Observations for New May Downs

IDQ60801

Issued at 5:02 pm EST Saturday 22 September 2018 (issued every 10 minutes, with the page automatically refreshed every 10 minutes)

About weather observations | Map of weather stations | Latest weather observations for QLD | Other Formats
Station Details ID: 037059 Name: NEW MAY DOWNS Lat: -20.59 Lon: 139.34 Height: 392.0 m
Data from the previous 72 hours. | See also: Recent months at New May Downs
Date/Time
EST
Temp
°C
App
Temp
°C
Dew
Point
°C
Rel
Hum
%
Delta-T
°C
Wind Press
QNH
hPa
Press
MSL
hPa
Rain since
9am
mm
Dir  Spd
km/h
Gust
km/h
Spd
kts
Gust
kts
22/05:00pm 32.0 27.2 -6.3 8 17.0 SE 11 24 6 13 - - 0.0
22/04:30pm 31.9 26.9 -8.1 7 17.2 SE 11 19 6 10 - - 0.0
22/04:00pm 31.9 27.4 -6.4 8 16.9 SSW 9 19 5 10 - - 0.0
22/03:30pm 32.3 28.4 -4.6 9 16.9 SE 7 13 4 7 - - 0.0
22/03:00pm 32.0 27.3 -4.8 9 16.7 SE 11 19 6 10 - - 0.0
22/02:30pm 32.1 27.1 -4.7 9 16.8 ESE 13 24 7 13 - - 0.0
22/02:00pm 31.3 26.6 -1.5 12 15.7 ENE 13 24 7 13 - - 0.0
22/01:30pm 31.2 27.1 -2.7 11 15.9 ENE 9 28 5 15 - - 0.0
22/01:00pm 31.1 26.4 -5.5 9 16.3 ESE 11 17 6 9 - - 0.0
22/12:30pm 30.7 26.4 -4.4 10 15.9 ESE 9 24 5 13 - - 0.0
22/12:00pm 30.4 24.2 -4.6 10 15.8 E 19 30 10 16 - - 0.0
22/11:30am 30.2 24.5 -7.7 8 16.2 ESE 15 24 8 13 - - 0.0
22/11:00am 29.7 23.6 -8.0 8 15.9 ESE 17 28 9 15 - - 0.0
22/10:30am 28.0 21.1 -11.0 7 15.4 ESE 20 30 11 16 - - 0.0
22/10:00am 27.7 21.3 -11.2 7 15.2 ESE 17 28 9 15 - - 0.0
22/09:30am 26.4 19.4 -12.1 7 14.6 E 20 28 11 15 - - 0.0
22/09:00am 24.5 18.1 -11.9 8 13.6 ESE 17 24 9 13 - - 0.0
22/08:30am 22.8 17.1 -13.1 8 12.9 ESE 13 19 7 10 - - 0.0
22/08:00am 19.7 15.4 -11.5 11 11.1 SE 6 9 3 5 - - 0.0
22/07:30am 18.3 13.9 -12.6 11 10.6 SE 6 7 3 4 - - 0.0
22/07:00am 16.7 12.4 -11.8 13 9.7 SE 6 6 3 3 - - 0.0
22/06:30am 16.1 12.1 -12.3 13 9.5 SSE 4 6 2 3 - - 0.0
22/06:00am 16.9 12.5 -12.6 12 9.9 SSE 6 7 3 4 - - 0.0
22/05:30am 17.0 12.4 -12.6 12 10.0 SSE 7 9 4 5 - - 0.0
22/05:00am 17.2 12.3 -12.4 12 10.1 SSE 9 11 5 6 - - 0.0
22/04:30am 17.1 12.2 -12.5 12 10.0 ESE 9 11 5 6 - - 0.0
22/04:00am 17.9 13.3 -12.9 11 10.5 SSE 7 9 4 5 - - 0.0
22/03:30am 18.1 13.5 -12.8 11 10.5 SSE 7 9 4 5 - - 0.0
22/03:00am 18.1 13.5 -12.8 11 10.5 S 7 11 4 6 - - 0.0
22/02:30am 18.8 13.9 -12.2 11 10.8 S 9 11 5 6 - - 0.0
22/02:00am 19.1 14.2 -12.0 11 10.9 SSE 9 13 5 7 - - 0.0
22/01:30am 19.6 14.7 -11.6 11 11.1 S 9 13 5 7 - - 0.0
22/01:00am 20.1 15.2 -12.4 10 11.5 SSE 9 13 5 7 - - 0.0
22/12:30am 20.2 16.2 -12.3 10 11.5 ESE 4 6 2 3 - - 0.0
22/12:00am 21.6 16.3 -12.6 9 12.2 SSE 11 17 6 9 - - 0.0
 
Date/Time
EST
Temp
°C
App
Temp
°C
Dew
Point
°C
Rel
Hum
%
Delta-T
°C
Wind Press
QNH
hPa
Press
MSL
hPa
Rain since
9am
mm
Dir  Spd
km/h
Gust
km/h
Spd
kts
Gust
kts
21/11:30pm 21.9 16.2 -12.4 9 12.3 SSE 13 22 7 12 - - 0.0
21/11:00pm 21.8 16.1 -12.4 9 12.3 SSE 13 17 7 9 - - 0.0
21/10:30pm 22.0 16.7 -12.3 9 12.4 SSE 11 13 6 7 - - 0.0
21/10:00pm 22.5 17.2 -11.9 9 12.6 SSE 11 17 6 9 - - 0.0
21/09:30pm 22.9 17.5 -13.1 8 12.9 SSE 11 15 6 8 - - 0.0
21/09:00pm 23.6 18.3 -12.5 8 13.2 S 11 15 6 8 - - 0.0
21/08:30pm 23.6 18.7 -12.5 8 13.2 SSE 9 11 5 6 - - 0.0
21/08:00pm 24.1 19.2 -12.2 8 13.4 SSE 9 13 5 7 - - 0.0
21/07:30pm 24.5 19.5 -13.5 7 13.8 SSE 9 15 5 8 - - 0.0
21/07:00pm 25.4 20.8 -12.9 7 14.2 SE 7 11 4 6 - - 0.0
21/06:30pm 27.0 21.6 -13.6 6 15.1 SE 11 17 6 9 - - 0.0
21/06:00pm 28.1 22.8 -12.8 6 15.6 SE 11 17 6 9 - - 0.0
21/05:30pm 28.8 23.4 -14.5 5 16.2 SSE 11 17 6 9 - - 0.0
21/05:00pm 29.4 24.0 -14.1 5 16.5 ESE 11 22 6 12 - - 0.0
21/04:30pm 29.8 23.6 -13.8 5 16.7 ESE 15 20 8 11 - - 0.0
21/04:00pm 29.1 23.7 -14.3 5 16.3 ESE 11 20 6 11 - - 0.0
21/03:30pm 29.4 24.0 -14.1 5 16.5 SE 11 20 6 11 - - 0.0
21/03:00pm 29.1 22.5 -14.3 5 16.3 SE 17 24 9 13 - - 0.0
21/02:30pm 29.1 23.0 -12.1 6 16.1 ESE 15 26 8 14 - - 0.0
21/02:00pm 28.6 21.2 -12.4 6 15.9 E 22 32 12 17 - - 0.0
21/01:30pm 28.0 21.1 -12.9 6 15.6 E 19 35 10 19 - - 0.0
21/01:00pm 27.8 20.1 -11.1 7 15.3 ESE 24 33 13 18 - - 0.0
21/12:30pm 26.8 19.8 -11.8 7 14.8 ESE 20 32 11 17 - - 0.0
21/12:00pm 26.5 19.6 -10.4 8 14.5 E 20 30 11 16 - - 0.0
21/11:30am 25.3 18.0 -11.3 8 14.0 ESE 22 32 12 17 - - 0.0
21/11:00am 24.5 16.4 -11.9 8 13.6 ESE 26 37 14 20 - - 0.0
21/10:30am 24.0 15.9 -10.8 9 13.2 ESE 26 43 14 23 - - 0.0
21/10:00am 23.0 14.6 -10.2 10 12.6 ESE 28 43 15 23 - - 0.0
21/09:30am 22.6 13.8 -10.5 10 12.5 E 30 44 16 24 - - 0.0
21/09:13am 22.1 13.7 -10.9 10 12.3 ESE 28 46 15 25 - - 0.0
21/09:00am 21.6 14.4 -10.1 11 11.9 ESE 22 33 12 18 - - 0.0
21/08:30am 20.7 13.9 -9.7 12 11.4 ESE 20 32 11 17 - - 0.0
21/08:00am 19.9 13.3 -9.3 13 10.9 ESE 19 28 10 15 - - 0.0
21/07:30am 18.9 13.1 -9.1 14 10.4 ESE 15 24 8 13 - - 0.0
21/07:00am 17.8 11.7 -8.3 16 9.7 ESE 17 22 9 12 - - 0.0
21/06:30am 16.8 11.3 -9.1 16 9.4 SE 13 17 7 9 - - 0.0
21/06:00am 16.9 11.0 -9.9 15 9.6 SE 15 19 8 10 - - 0.0
21/05:30am 17.6 11.7 -10.2 14 9.9 SE 15 24 8 13 - - 0.0
21/05:00am 17.6 12.4 -11.1 13 10.1 ESE 11 17 6 9 - - 0.0
21/04:30am 18.2 12.6 -10.6 13 10.3 ESE 13 20 7 11 - - 0.0
21/04:00am 18.1 12.9 -10.7 13 10.3 SE 11 17 6 9 - - 0.0
21/03:30am 18.5 12.9 -11.4 12 10.5 SE 13 20 7 11 - - 0.0
21/03:00am 18.7 13.1 -11.2 12 10.6 SSE 13 17 7 9 - - 0.0
21/02:30am 18.8 13.6 -11.2 12 10.7 SSE 11 19 6 10 - - 0.0
21/02:00am 19.3 13.7 -10.8 12 10.8 SSE 13 19 7 10 - - 0.0
21/01:30am 19.5 13.9 -10.6 12 10.9 SSE 13 19 7 10 - - 0.0
21/01:00am 20.2 14.6 -11.2 11 11.3 SSE 13 24 7 13 - - 0.0
21/12:30am 20.0 14.8 -10.2 12 11.1 SSE 11 15 6 8 - - 0.0
21/12:00am 20.5 15.7 -10.9 11 11.5 SSE 9 13 5 7 - - 0.0
 
Date/Time
EST
Temp
°C
App
Temp
°C
Dew
Point
°C
Rel
Hum
%
Delta-T
°C
Wind Press
QNH
hPa
Press
MSL
hPa
Rain since
9am
mm
Dir  Spd
km/h
Gust
km/h
Spd
kts
Gust
kts
20/11:30pm 20.8 15.6 -10.7 11 11.6 SSE 11 15 6 8 - - 0.0
20/11:00pm 20.9 16.1 -10.6 11 11.6 SSE 9 13 5 7 - - 0.0
20/10:30pm 21.2 16.5 -9.3 12 11.6 SSE 9 13 5 7 - - 0.0
20/10:00pm 21.5 16.8 -9.1 12 11.7 S 9 13 5 7 - - 0.0
20/09:30pm 21.4 16.7 -9.1 12 11.6 S 9 13 5 7 - - 0.0
20/09:00pm 22.3 17.6 -9.5 11 12.2 S 9 13 5 7 - - 0.0
20/08:30pm 22.6 17.8 -10.5 10 12.5 SSE 9 13 5 7 - - 0.0
20/08:00pm 22.9 18.1 -10.3 10 12.6 SE 9 11 5 6 - - 0.0
20/07:30pm 23.7 18.9 -11.0 9 13.1 SE 9 11 5 6 - - 0.0
20/07:00pm 25.1 19.6 -10.0 9 13.7 SE 13 20 7 11 - - 0.0
20/06:30pm 26.1 19.8 -10.7 8 14.3 SE 17 22 9 12 - - 0.0
20/06:00pm 26.9 20.2 -10.1 8 14.7 SE 19 28 10 15 - - 0.0
20/05:30pm 27.9 21.7 -9.4 8 15.1 SE 17 26 9 14 - - 0.0
20/05:00pm 28.6 22.8 -8.8 8 15.4 SE 15 24 8 13 - - 0.0
20/04:30pm 28.3 21.7 -9.1 8 15.3 SE 19 26 10 14 - - 0.0
20/04:00pm 28.3 22.0 -10.7 7 15.5 SE 17 26 9 14 - - 0.0
20/03:30pm 28.5 22.3 -8.9 8 15.4 SE 17 30 9 16 - - 0.0
20/03:00pm 28.4 21.8 -9.0 8 15.3 ESE 19 28 10 15 - - 0.0
20/02:30pm 28.2 21.6 -9.1 8 15.2 SE 19 30 10 16 - - 0.0
20/02:00pm 27.5 20.9 -9.7 8 14.9 SE 19 30 10 16 - - 0.0
20/01:30pm 27.3 20.8 -8.3 9 14.6 SE 19 26 10 14 - - 0.0
20/01:00pm 25.8 19.3 -8.1 10 13.8 SE 19 28 10 15 - - 0.0
20/12:30pm 26.0 19.5 -7.9 10 13.9 SE 19 32 10 17 - - 0.0
20/12:00pm 24.7 18.0 -7.7 11 13.1 SE 20 32 11 17 - - 0.0
20/11:30am 25.0 18.5 -7.5 11 13.3 ESE 19 30 10 16 - - 0.0
20/11:00am 24.0 17.3 -8.2 11 12.8 ESE 20 30 11 16 - - 0.0
20/10:30am 22.6 15.6 -7.2 13 11.9 ESE 22 33 12 18 - - 0.0
20/10:00am 21.9 15.3 -6.8 14 11.5 SE 20 35 11 19 - - 0.0
20/09:30am 20.9 13.6 -5.8 16 10.8 SE 24 37 13 20 - - 0.0
20/09:00am 19.0 11.4 -5.8 18 9.9 SE 26 39 14 21 - - -
20/08:30am 18.0 10.4 -5.3 20 9.3 SE 26 41 14 22 - - -
20/08:00am 17.1 10.0 -4.2 23 8.6 SE 24 35 13 19 - - -
20/07:30am 16.3 10.3 -3.2 26 8.0 SSE 19 32 10 17 - - -
20/07:00am 15.6 9.5 -2.3 29 7.4 SSE 20 32 11 17 - - -
20/06:30am 15.4 10.0 -1.6 31 7.1 SSE 17 26 9 14 - - -
20/06:00am 15.4 10.0 -1.6 31 7.1 SSE 17 28 9 15 - - -
20/05:30am 15.7 10.3 -1.4 31 7.2 SSE 17 26 9 14 - - -
20/05:00am 15.9 10.6 -0.8 32 7.1 SSE 17 24 9 13 - - -
20/04:30am 16.2 11.2 -0.9 31 7.3 SSE 15 22 8 12 - - -
20/04:00am 16.8 12.0 0.0 32 7.4 SSE 15 28 8 15 - - -
20/03:30am 17.0 12.6 0.2 32 7.4 SSE 13 17 7 9 - - -
20/03:00am 17.7 12.5 0.4 31 7.7 S 17 24 9 13 - - 0.0
20/02:30am 18.4 13.6 0.5 30 8.0 S 15 24 8 13 - - -
20/02:00am 18.9 13.8 1.0 30 8.2 S 17 26 9 14 - - -
20/01:30am 19.6 14.9 0.6 28 8.6 SSE 15 28 8 15 - - -
20/01:00am 20.3 15.9 0.2 26 9.1 SSE 13 20 7 11 - - -
20/12:30am 21.0 16.1 -0.3 24 9.6 SSE 15 22 8 12 - - -
20/12:00am 21.8 16.5 -0.8 22 10.2 SSE 17 24 9 13 - - -
 
Date/Time
EST
Temp
°C
App
Temp
°C
Dew
Point
°C
Rel
Hum
%
Delta-T
°C
Wind Press
QNH
hPa
Press
MSL
hPa
Rain since
9am
mm
Dir  Spd
km/h
Gust
km/h
Spd
kts
Gust
kts
19/11:30pm 22.6 16.7 -0.8 21 10.6 SSE 20 32 11 17 - - -
19/11:00pm 23.2 17.8 -1.7 19 11.2 SSE 17 24 9 13 - - -
19/10:30pm 23.7 17.8 -2.0 18 11.5 SSE 19 28 10 15 - - -
19/10:00pm 24.5 18.5 -2.9 16 12.1 SSE 19 32 10 17 - - -
19/09:30pm 24.9 19.6 -3.5 15 12.5 S 15 22 8 12 - - -
19/09:00pm 25.3 19.8 -5.1 13 13.0 S 15 22 8 12 - - 0.0
19/08:30pm 26.1 20.3 -4.4 13 13.3 S 17 26 9 14 - - -
19/08:00pm 26.6 21.1 -5.1 12 13.7 S 15 22 8 12 - - -
19/07:30pm 27.4 21.2 -4.5 12 14.1 S 19 28 10 15 - - -
19/07:00pm 27.9 22.8 -5.2 11 14.5 SSW 13 24 7 13 - - -
19/06:30pm 29.2 22.9 -5.5 10 15.2 SSW 19 32 10 17 - - -
19/06:00pm 30.4 23.9 -6.0 9 16.0 SSW 20 33 11 18 - - -
19/05:30pm 31.3 24.0 -6.8 8 16.7 SSW 24 39 13 21 - - -

Other Formats:

Comma delimited format used in spreadsheet applications
http://www.bom.gov.au/fwo/IDQ60801/IDQ60801.94349.axf

JavaScript Object Notation format (JSON) in row-major order
http://www.bom.gov.au/fwo/IDQ60801/IDQ60801.94349.json